createdAt,value
2018-02-13T00:00:16.571Z,67.32
2018-02-13T00:01:23.741Z,67.36
2018-02-13T00:02:30.586Z,67.34
2018-02-13T00:03:37.347Z,67.37
2018-02-13T00:04:44.515Z,67.38
2018-02-13T00:05:51.184Z,67.40
2018-02-13T00:06:57.873Z,67.42
2018-02-13T00:08:04.656Z,67.43
2018-02-13T00:09:11.383Z,67.50
2018-02-13T00:10:18.544Z,67.55
2018-02-13T00:11:25.691Z,67.54
2018-02-13T00:12:32.827Z,67.48
2018-02-13T00:13:39.997Z,67.50
2018-02-13T00:14:46.671Z,67.53
2018-02-13T00:15:53.943Z,67.62
2018-02-13T00:17:00.619Z,67.63
2018-02-13T00:18:07.324Z,67.65
2018-02-13T00:19:13.979Z,67.71
2018-02-13T00:20:21.144Z,67.72
2018-02-13T00:21:27.807Z,67.73
2018-02-13T00:22:34.600Z,67.72
2018-02-13T00:23:41.436Z,67.71
2018-02-13T00:24:48.127Z,67.73
2018-02-13T00:25:54.778Z,67.75
2018-02-13T00:27:01.447Z,67.74
2018-02-13T00:28:08.601Z,67.74
2018-02-13T00:29:15.777Z,67.71
2018-02-13T00:30:22.435Z,67.71
2018-02-13T00:31:29.583Z,67.74
2018-02-13T00:32:36.731Z,67.77
2018-02-13T00:33:43.435Z,67.77
2018-02-13T00:34:50.188Z,67.73
2018-02-13T00:35:57.342Z,67.65
2018-02-13T00:37:04.520Z,67.67
2018-02-13T00:38:11.179Z,67.76
2018-02-13T00:39:17.875Z,67.78
2018-02-13T00:40:24.523Z,67.78
2018-02-13T00:41:31.207Z,67.78
2018-02-13T00:42:37.882Z,67.71
2018-02-13T00:43:45.061Z,67.73
2018-02-13T00:44:52.315Z,67.73
2018-02-13T00:45:58.959Z,67.79
2018-02-13T00:47:05.714Z,67.81
2018-02-13T00:48:12.886Z,67.84
2018-02-13T00:49:20.022Z,67.86
2018-02-13T00:50:27.219Z,67.86
2018-02-13T00:51:33.897Z,67.97
2018-02-13T00:52:40.583Z,68.02
2018-02-13T00:53:47.755Z,68.05
2018-02-13T00:54:54.427Z,68.04
2018-02-13T00:56:01.134Z,68.07
2018-02-13T00:57:07.794Z,68.08
2018-02-13T00:58:14.959Z,68.06
2018-02-13T00:59:22.358Z,68.04
2018-02-13T01:00:28.991Z,68.05
2018-02-13T01:01:36.175Z,68.08
2018-02-13T01:02:42.866Z,68.08
2018-02-13T01:03:49.546Z,68.13
2018-02-13T01:04:56.222Z,68.14
2018-02-13T01:06:02.899Z,68.15
2018-02-13T01:07:09.594Z,68.14
2018-02-13T01:08:16.307Z,68.10
2018-02-13T01:09:22.967Z,68.12
2018-02-13T01:10:30.115Z,68.15
2018-02-13T01:11:37.329Z,68.21
2018-02-13T01:12:44.074Z,68.24
2018-02-13T01:13:51.563Z,68.18
2018-02-13T01:14:58.242Z,68.18
2018-02-13T01:16:05.023Z,68.20
2018-02-13T01:17:12.215Z,68.25
2018-02-13T01:18:18.866Z,68.24
2018-02-13T01:19:26.032Z,68.29
2018-02-13T01:20:32.719Z,68.29
2018-02-13T01:21:39.412Z,68.29
2018-02-13T01:22:46.108Z,68.34
2018-02-13T01:23:52.812Z,68.33
2018-02-13T01:24:59.591Z,68.30
2018-02-13T01:26:06.354Z,68.29
2018-02-13T01:27:13.046Z,68.29
2018-02-13T01:28:19.728Z,68.29
2018-02-13T01:29:26.430Z,68.28
2018-02-13T01:30:33.107Z,68.29
2018-02-13T01:31:39.885Z,68.27
2018-02-13T01:32:46.712Z,68.33
2018-02-13T01:33:53.358Z,68.39
2018-02-13T01:35:00.511Z,68.42
2018-02-13T01:36:07.679Z,68.39
2018-02-13T01:37:14.860Z,68.42
2018-02-13T01:38:21.530Z,68.42
2018-02-13T01:39:28.222Z,68.41
2018-02-13T01:40:34.927Z,68.44
2018-02-13T01:41:41.590Z,68.43
2018-02-13T01:42:48.394Z,68.47
2018-02-13T01:43:55.106Z,68.53
2018-02-13T01:45:01.776Z,68.55
2018-02-13T01:46:08.957Z,68.50
2018-02-13T01:47:15.637Z,68.47
2018-02-13T01:48:22.349Z,68.52
2018-02-13T01:49:29.030Z,68.53
2018-02-13T01:50:35.690Z,68.51
2018-02-13T01:51:42.866Z,68.50
2018-02-13T01:52:49.554Z,68.52
2018-02-13T01:53:56.240Z,68.54
2018-02-13T01:55:03.017Z,68.55
2018-02-13T01:56:09.683Z,68.53
2018-02-13T01:57:16.836Z,68.52
2018-02-13T01:58:24.004Z,68.55
2018-02-13T01:59:30.699Z,68.56
2018-02-13T02:00:37.413Z,68.55
2018-02-13T02:01:44.076Z,68.58
2018-02-13T02:02:51.249Z,68.60
2018-02-13T02:03:57.963Z,68.65
2018-02-13T02:05:05.011Z,68.69
2018-02-13T02:06:11.775Z,68.66
2018-02-13T02:07:18.478Z,68.70
2018-02-13T02:08:25.232Z,68.71
2018-02-13T02:09:31.963Z,68.69
2018-02-13T02:10:38.681Z,68.68
2018-02-13T02:11:45.384Z,68.67
2018-02-13T02:12:52.090Z,68.68
2018-02-13T02:13:58.921Z,68.66
2018-02-13T02:15:05.630Z,68.74
2018-02-13T02:16:12.346Z,68.75
2018-02-13T02:17:19.023Z,68.73
2018-02-13T02:18:25.719Z,68.74
2018-02-13T02:19:32.387Z,68.73
2018-02-13T02:20:39.218Z,68.75
2018-02-13T02:21:45.894Z,68.75
2018-02-13T02:22:52.571Z,68.81
2018-02-13T02:23:59.275Z,68.83
2018-02-13T02:25:05.972Z,68.82
2018-02-13T02:26:12.715Z,68.80
2018-02-13T02:27:19.428Z,68.75
2018-02-13T02:28:26.194Z,68.82
2018-02-13T02:29:32.887Z,68.87
2018-02-13T02:30:39.629Z,68.87
2018-02-13T02:31:46.340Z,68.94
2018-02-13T02:32:53.027Z,68.98
2018-02-13T02:33:59.751Z,69.01
2018-02-13T02:35:06.422Z,69.00
2018-02-13T02:36:13.216Z,69.01
2018-02-13T02:37:20.139Z,68.99
2018-02-13T02:38:26.815Z,68.98
2018-02-13T02:39:33.713Z,68.98
2018-02-13T02:40:40.433Z,69.00
2018-02-13T02:41:47.248Z,68.96
2018-02-13T02:42:53.919Z,68.96
2018-02-13T02:44:00.728Z,69.02
2018-02-13T02:45:07.426Z,69.02
2018-02-13T02:46:14.155Z,69.04
2018-02-13T02:47:20.835Z,69.01
2018-02-13T02:48:27.523Z,69.00
2018-02-13T02:49:34.198Z,69.04
2018-02-13T02:50:40.896Z,69.10
2018-02-13T02:51:47.603Z,69.14
2018-02-13T02:52:54.335Z,69.13
2018-02-13T02:54:01.029Z,69.13
2018-02-13T02:55:07.726Z,69.11
2018-02-13T02:56:14.475Z,69.07
2018-02-13T02:57:21.176Z,69.08
2018-02-13T02:58:27.881Z,69.09
2018-02-13T02:59:34.822Z,69.12
2018-02-13T03:00:41.512Z,69.16
2018-02-13T03:01:48.255Z,69.20
2018-02-13T03:02:54.967Z,69.24
2018-02-13T03:04:01.676Z,69.22
2018-02-13T03:05:08.511Z,69.20
2018-02-13T03:06:15.215Z,69.20
2018-02-13T03:07:21.950Z,69.20
2018-02-13T03:08:28.656Z,69.17
2018-02-13T03:09:35.315Z,69.13
2018-02-13T03:10:41.990Z,69.17
2018-02-13T03:11:48.816Z,69.17
2018-02-13T03:12:55.493Z,69.18
2018-02-13T03:14:02.663Z,69.17
2018-02-13T03:15:09.351Z,69.12
2018-02-13T03:16:16.055Z,69.14
2018-02-13T03:17:23.107Z,69.15
2018-02-13T03:18:29.811Z,69.18
2018-02-13T03:19:36.511Z,69.20
2018-02-13T03:20:43.259Z,69.18
2018-02-13T03:21:49.971Z,69.19
2018-02-13T03:22:56.782Z,69.21
2018-02-13T03:24:03.455Z,69.19
2018-02-13T03:25:10.640Z,69.16
2018-02-13T03:26:17.348Z,69.19
2018-02-13T03:27:24.074Z,69.18
2018-02-13T03:28:30.859Z,69.20
2018-02-13T03:29:37.599Z,69.21
2018-02-13T03:30:44.300Z,69.22
2018-02-13T03:31:51.032Z,69.18
2018-02-13T03:32:57.754Z,69.16
2018-02-13T03:34:04.540Z,69.19
2018-02-13T03:35:11.251Z,69.23
2018-02-13T03:36:17.942Z,69.24
2018-02-13T03:37:24.620Z,69.26
2018-02-13T03:38:31.311Z,69.33
2018-02-13T03:39:38.003Z,69.35
2018-02-13T03:40:44.674Z,69.38
2018-02-13T03:41:51.367Z,69.42
2018-02-13T03:42:58.417Z,69.45
2018-02-13T03:44:05.086Z,69.52
2018-02-13T03:45:11.802Z,69.46
2018-02-13T03:46:18.475Z,69.44
2018-02-13T03:47:25.154Z,69.37
2018-02-13T03:48:31.952Z,69.39
2018-02-13T03:49:38.606Z,69.43
2018-02-13T03:50:45.767Z,69.43
2018-02-13T03:51:52.462Z,69.43
2018-02-13T03:52:59.147Z,69.44
2018-02-13T03:54:05.875Z,69.46
2018-02-13T03:55:12.578Z,69.48
2018-02-13T03:56:19.332Z,69.51
2018-02-13T03:57:26.155Z,69.52
2018-02-13T03:58:32.864Z,69.51
2018-02-13T03:59:39.593Z,69.50
2018-02-13T04:00:46.288Z,69.53
2018-02-13T04:01:52.991Z,69.53
2018-02-13T04:02:59.808Z,69.48
2018-02-13T04:04:06.973Z,69.45
2018-02-13T04:05:13.679Z,69.47
2018-02-13T04:06:20.383Z,69.47
2018-02-13T04:07:27.065Z,69.50
2018-02-13T04:08:33.782Z,69.55
2018-02-13T04:09:40.456Z,69.56
2018-02-13T04:10:47.175Z,69.59
2018-02-13T04:11:53.980Z,69.60
2018-02-13T04:13:00.692Z,69.59
2018-02-13T04:14:07.378Z,69.61
2018-02-13T04:15:14.132Z,69.59
2018-02-13T04:16:20.856Z,69.58
2018-02-13T04:17:27.591Z,69.58
2018-02-13T04:18:34.380Z,69.60
2018-02-13T04:19:41.072Z,69.60
2018-02-13T04:20:47.776Z,69.59
2018-02-13T04:21:54.482Z,69.61
2018-02-13T04:23:01.170Z,69.62
2018-02-13T04:24:07.872Z,69.64
2018-02-13T04:25:14.558Z,69.65
2018-02-13T04:26:21.275Z,69.64
2018-02-13T04:27:28.077Z,69.64
2018-02-13T04:28:34.807Z,69.67
2018-02-13T04:29:41.515Z,69.65
2018-02-13T04:30:48.194Z,69.68
2018-02-13T04:31:54.969Z,69.66
2018-02-13T04:33:01.635Z,69.67
2018-02-13T04:34:08.322Z,69.65
2018-02-13T04:35:14.994Z,69.70
2018-02-13T04:36:21.805Z,69.70
2018-02-13T04:37:28.528Z,69.72
2018-02-13T04:38:35.199Z,69.75
2018-02-13T04:39:42.372Z,69.76
2018-02-13T04:40:49.067Z,69.77
2018-02-13T04:41:55.771Z,69.79
2018-02-13T04:43:02.462Z,69.79
2018-02-13T04:44:09.162Z,69.75
2018-02-13T04:45:16.051Z,69.80
2018-02-13T04:46:22.774Z,69.84
2018-02-13T04:47:29.455Z,69.82
2018-02-13T04:48:36.162Z,69.86
2018-02-13T04:49:42.827Z,69.87
2018-02-13T04:50:49.508Z,69.90
2018-02-13T04:51:56.215Z,69.92
2018-02-13T04:53:03.014Z,69.97
2018-02-13T04:54:09.706Z,69.94
2018-02-13T04:55:16.387Z,69.94
2018-02-13T04:56:23.163Z,69.96
2018-02-13T04:57:29.868Z,69.98
2018-02-13T04:58:36.556Z,70.01
2018-02-13T04:59:43.262Z,70.05
2018-02-13T05:00:50.055Z,70.06
2018-02-13T05:01:56.733Z,70.13
2018-02-13T05:03:03.922Z,70.18
2018-02-13T05:04:10.605Z,70.23
2018-02-13T05:05:17.300Z,70.25
2018-02-13T05:06:24.010Z,70.24
2018-02-13T05:07:30.739Z,70.32
2018-02-13T05:08:37.433Z,70.34
2018-02-13T05:09:44.603Z,70.36
2018-02-13T05:10:51.279Z,70.38
2018-02-13T05:11:57.952Z,70.42
2018-02-13T05:13:04.826Z,70.48
2018-02-13T05:14:11.523Z,70.50
2018-02-13T05:15:18.216Z,70.55
2018-02-13T05:16:24.918Z,70.57
2018-02-13T05:17:31.670Z,70.60
2018-02-13T05:18:38.358Z,70.63
2018-02-13T05:19:45.194Z,70.66
2018-02-13T05:20:51.847Z,70.73
2018-02-13T05:21:58.542Z,70.71
2018-02-13T05:23:05.252Z,70.76
2018-02-13T05:24:11.950Z,70.78
2018-02-13T05:25:18.633Z,70.79
2018-02-13T05:26:25.341Z,70.82
2018-02-13T05:27:32.026Z,70.82
2018-02-13T05:28:38.826Z,70.88
2018-02-13T05:29:45.614Z,70.93
2018-02-13T05:30:52.303Z,70.96
2018-02-13T05:31:58.994Z,71.00
2018-02-13T05:33:05.720Z,71.04
2018-02-13T05:34:12.403Z,71.09
2018-02-13T05:35:19.069Z,71.12
2018-02-13T05:36:25.835Z,71.16
2018-02-13T05:37:32.991Z,71.17
2018-02-13T05:38:39.691Z,71.22
2018-02-13T05:39:46.405Z,71.26
2018-02-13T05:40:53.111Z,71.30
2018-02-13T05:41:59.811Z,71.30
2018-02-13T05:43:06.527Z,71.30
2018-02-13T05:44:13.243Z,71.34
2018-02-13T05:45:19.915Z,71.33
2018-02-13T05:46:26.710Z,71.33
2018-02-13T05:47:33.370Z,71.35
2018-02-13T05:48:40.645Z,71.34
2018-02-13T05:49:47.463Z,71.40
2018-02-13T05:50:54.348Z,71.46
2018-02-13T05:52:01.096Z,71.48
2018-02-13T05:53:08.015Z,71.48
2018-02-13T05:54:14.776Z,71.48
2018-02-13T05:55:21.480Z,71.51
2018-02-13T05:56:28.171Z,71.52
2018-02-13T05:57:34.862Z,71.52
2018-02-13T05:58:41.576Z,71.52
2018-02-13T05:59:48.255Z,71.51
2018-02-13T06:00:54.983Z,71.52
2018-02-13T06:02:01.672Z,71.51
2018-02-13T06:03:08.358Z,71.54
2018-02-13T06:04:15.170Z,71.53
2018-02-13T06:05:21.839Z,71.58
2018-02-13T06:06:28.543Z,71.55
2018-02-13T06:07:35.226Z,71.54
2018-02-13T06:08:42.089Z,71.62
2018-02-13T06:09:48.982Z,71.65
2018-02-13T06:10:55.681Z,71.67
2018-02-13T06:12:02.433Z,71.67
2018-02-13T06:13:09.138Z,71.66
2018-02-13T06:14:15.827Z,71.65
2018-02-13T06:15:22.684Z,71.64
2018-02-13T06:16:29.406Z,71.67
2018-02-13T06:17:36.135Z,71.65
2018-02-13T06:18:42.847Z,71.68
2018-02-13T06:19:49.660Z,71.68
2018-02-13T06:20:56.533Z,71.67
2018-02-13T06:22:03.407Z,71.63
2018-02-13T06:23:10.107Z,71.65
2018-02-13T06:24:16.926Z,71.65
2018-02-13T06:25:23.718Z,71.67
2018-02-13T06:26:30.489Z,71.69
2018-02-13T06:27:37.196Z,71.66
2018-02-13T06:28:44.020Z,71.66
2018-02-13T06:29:50.718Z,71.67
2018-02-13T06:30:57.410Z,71.69
2018-02-13T06:32:04.167Z,71.69
2018-02-13T06:33:10.859Z,71.72
2018-02-13T06:34:17.570Z,71.74
2018-02-13T06:35:24.271Z,71.76
2018-02-13T06:36:31.079Z,71.79
2018-02-13T06:37:37.794Z,71.81
2018-02-13T06:38:44.519Z,71.82
2018-02-13T06:39:51.243Z,71.83
2018-02-13T06:40:57.935Z,71.83
2018-02-13T06:42:04.671Z,71.84
2018-02-13T06:43:11.400Z,71.89
2018-02-13T06:44:18.134Z,71.89
2018-02-13T06:45:24.822Z,71.91
2018-02-13T06:46:31.530Z,71.96
2018-02-13T06:47:38.247Z,71.98
2018-02-13T06:48:45.040Z,71.98
2018-02-13T06:49:51.758Z,72.02
2018-02-13T06:50:58.548Z,72.08
2018-02-13T06:52:05.253Z,72.12
2018-02-13T06:53:11.988Z,72.14
2018-02-13T06:54:18.695Z,72.16
2018-02-13T06:55:25.428Z,72.18
2018-02-13T06:56:32.130Z,72.22
2018-02-13T06:57:38.932Z,72.24
2018-02-13T06:58:45.986Z,72.24
2018-02-13T06:59:52.729Z,72.29
2018-02-13T07:00:59.415Z,72.29
2018-02-13T07:02:06.131Z,72.33
2018-02-13T07:03:13.133Z,72.38
2018-02-13T07:04:19.632Z,72.43
2018-02-13T07:05:26.365Z,72.47
2018-02-13T07:06:33.099Z,72.48
2018-02-13T07:07:39.802Z,72.50
2018-02-13T07:08:46.506Z,72.56
2018-02-13T07:09:53.236Z,72.60
2018-02-13T07:10:59.910Z,72.63
2018-02-13T07:12:06.619Z,72.64
2018-02-13T07:13:13.324Z,72.66
2018-02-13T07:14:20.039Z,72.70
2018-02-13T07:15:26.805Z,72.75
2018-02-13T07:16:33.469Z,72.85
2018-02-13T07:17:40.626Z,72.91
2018-02-13T07:18:47.869Z,72.99
2018-02-13T07:19:54.600Z,73.01
2018-02-13T07:21:01.300Z,73.06
2018-02-13T07:22:08.459Z,73.12
2018-02-13T07:23:15.215Z,73.19
2018-02-13T07:24:22.007Z,73.22
2018-02-13T07:25:28.693Z,73.27
2018-02-13T07:26:35.439Z,73.29
2018-02-13T07:27:42.116Z,73.38
2018-02-13T07:28:48.806Z,73.43
2018-02-13T07:29:55.487Z,73.53
2018-02-13T07:31:02.220Z,73.57
2018-02-13T07:32:08.880Z,73.59
2018-02-13T07:33:16.066Z,73.63
2018-02-13T07:34:22.831Z,73.67
2018-02-13T07:35:29.516Z,73.70
2018-02-13T07:36:36.373Z,73.73
2018-02-13T07:37:43.075Z,73.73
2018-02-13T07:38:50.229Z,73.77
2018-02-13T07:39:56.914Z,73.80
2018-02-13T07:41:03.716Z,73.89
2018-02-13T07:42:10.411Z,73.89
2018-02-13T07:43:17.105Z,73.91
2018-02-13T07:44:23.799Z,73.96
2018-02-13T07:45:30.461Z,74.00
2018-02-13T07:46:37.178Z,74.07
2018-02-13T07:47:43.879Z,74.10
2018-02-13T07:48:51.056Z,74.16
2018-02-13T07:49:57.724Z,74.21
2018-02-13T07:51:04.395Z,74.27
2018-02-13T07:52:11.095Z,74.32
2018-02-13T07:53:17.876Z,74.35
2018-02-13T07:54:24.545Z,74.39
2018-02-13T07:55:31.695Z,74.43
2018-02-13T07:56:38.863Z,74.47
2018-02-13T07:57:46.078Z,74.49
2018-02-13T07:58:52.774Z,74.54
2018-02-13T07:59:59.626Z,74.63
2018-02-13T08:01:06.410Z,74.68
2018-02-13T08:02:13.076Z,74.74
2018-02-13T08:03:20.285Z,74.81
2018-02-13T08:04:26.968Z,74.85
2018-02-13T08:05:33.672Z,74.95
2018-02-13T08:06:40.339Z,75.00
2018-02-13T08:07:47.089Z,75.09
2018-02-13T08:08:53.756Z,75.18
2018-02-13T08:10:00.474Z,75.25
2018-02-13T08:11:07.258Z,75.34
2018-02-13T08:12:13.936Z,75.43
2018-02-13T08:13:20.672Z,75.51
2018-02-13T08:14:27.335Z,75.60
2018-02-13T08:15:34.035Z,75.70
2018-02-13T08:16:40.767Z,75.84
2018-02-13T08:17:47.555Z,75.95
2018-02-13T08:18:54.316Z,76.06
2018-02-13T08:20:01.451Z,76.17
2018-02-13T08:21:08.599Z,76.26
2018-02-13T08:22:15.275Z,76.37
2018-02-13T08:23:21.964Z,76.50
2018-02-13T08:24:29.076Z,76.59
2018-02-13T08:25:35.816Z,76.68
2018-02-13T08:26:42.509Z,76.76
2018-02-13T08:27:49.188Z,76.88
2018-02-13T08:28:55.923Z,77.01
2018-02-13T08:30:02.588Z,77.11
2018-02-13T08:31:09.744Z,77.24
2018-02-13T08:32:17.445Z,77.29
2018-02-13T08:33:23.785Z,77.43
2018-02-13T08:34:30.633Z,77.52
2018-02-13T08:35:37.578Z,77.61
2018-02-13T08:36:44.254Z,77.72
2018-02-13T08:37:50.946Z,77.84
2018-02-13T08:38:57.612Z,77.93
2018-02-13T08:40:04.312Z,78.04
2018-02-13T08:41:11.044Z,78.15
2018-02-13T08:42:17.715Z,78.25
2018-02-13T08:43:24.857Z,78.34
2018-02-13T08:44:32.060Z,78.45
2018-02-13T08:45:38.860Z,78.58
2018-02-13T08:46:46.024Z,78.69
2018-02-13T08:47:52.680Z,78.79
2018-02-13T08:48:59.847Z,78.86
2018-02-13T08:50:07.045Z,78.94
2018-02-13T08:51:13.744Z,79.04
2018-02-13T08:52:20.446Z,79.14
2018-02-13T08:53:27.105Z,79.27
2018-02-13T08:54:33.776Z,79.41
2018-02-13T08:55:40.484Z,79.50
2018-02-13T08:56:47.144Z,79.60
2018-02-13T08:57:53.834Z,79.68
2018-02-13T08:59:01.020Z,79.82
2018-02-13T09:00:07.784Z,79.93
2018-02-13T09:01:14.454Z,80.05
2018-02-13T09:02:21.119Z,80.16
2018-02-13T09:03:28.279Z,80.26
2018-02-13T09:04:34.958Z,80.39
2018-02-13T09:05:41.679Z,80.54
2018-02-13T09:06:48.367Z,80.61
2018-02-13T09:07:55.087Z,80.72
2018-02-13T09:09:01.765Z,80.87
2018-02-13T09:10:08.575Z,80.94
2018-02-13T09:11:15.275Z,81.06
2018-02-13T09:12:21.966Z,81.19
2018-02-13T09:13:28.660Z,81.26
2018-02-13T09:14:35.351Z,81.32
2018-02-13T09:15:42.067Z,81.40
2018-02-13T09:16:49.026Z,81.55
2018-02-13T09:17:55.712Z,81.63
2018-02-13T09:19:02.424Z,81.73
2018-02-13T09:20:09.108Z,81.82
2018-02-13T09:21:15.808Z,81.88
2018-02-13T09:22:22.502Z,82.00
2018-02-13T09:23:29.190Z,82.11
2018-02-13T09:24:35.962Z,82.23
2018-02-13T09:25:42.647Z,82.32
2018-02-13T09:26:49.391Z,82.39
2018-02-13T09:27:56.076Z,82.46
2018-02-13T09:29:02.847Z,82.57
2018-02-13T09:30:09.534Z,82.70
2018-02-13T09:31:16.294Z,82.80
2018-02-13T09:32:23.009Z,82.86
2018-02-13T09:33:30.060Z,82.97
2018-02-13T09:34:36.747Z,83.07
2018-02-13T09:35:43.431Z,83.16
2018-02-13T09:36:50.108Z,83.22
2018-02-13T09:37:56.853Z,83.33
2018-02-13T09:39:03.527Z,83.45
2018-02-13T09:40:10.252Z,83.51
2018-02-13T09:41:16.956Z,83.61
2018-02-13T09:42:25.191Z,83.72
2018-02-13T09:43:30.722Z,83.78
2018-02-13T09:44:37.524Z,83.90
2018-02-13T09:45:44.209Z,83.99
2018-02-13T09:46:50.911Z,84.11
2018-02-13T09:47:57.655Z,84.17
2018-02-13T09:49:04.380Z,84.22
2018-02-13T09:50:11.059Z,84.35
2018-02-13T09:51:17.850Z,84.43
2018-02-13T09:52:24.568Z,84.53
2018-02-13T09:53:31.260Z,84.62
2018-02-13T09:54:37.963Z,84.70
2018-02-13T09:55:44.675Z,84.79
2018-02-13T09:56:51.376Z,84.86
2018-02-13T09:57:58.088Z,84.94
2018-02-13T09:59:04.840Z,85.08
2018-02-13T10:00:11.521Z,85.13
2018-02-13T10:01:18.298Z,85.22
2018-02-13T10:02:25.306Z,85.32
2018-02-13T10:03:32.019Z,85.42
2018-02-13T10:04:38.743Z,85.50
2018-02-13T10:05:45.456Z,85.58
2018-02-13T10:06:52.143Z,85.67
2018-02-13T10:07:58.870Z,85.76
2018-02-13T10:09:05.654Z,85.86
2018-02-13T10:10:12.809Z,85.93
2018-02-13T10:11:19.491Z,86.03
2018-02-13T10:12:26.178Z,86.09
2018-02-13T10:13:33.365Z,86.15
2018-02-13T10:14:40.048Z,86.22
2018-02-13T10:15:46.775Z,86.29
2018-02-13T10:16:53.944Z,86.32
2018-02-13T10:18:00.687Z,86.36
2018-02-13T10:19:07.458Z,86.48
2018-02-13T10:20:14.599Z,86.53
2018-02-13T10:21:21.343Z,86.61
2018-02-13T10:22:28.103Z,86.66
2018-02-13T10:23:34.868Z,86.71
2018-02-13T10:24:41.639Z,86.75
2018-02-13T10:25:48.331Z,86.77
2018-02-13T10:26:55.039Z,86.83
2018-02-13T10:28:01.731Z,86.89
2018-02-13T10:29:08.458Z,86.94
2018-02-13T10:30:15.123Z,86.99
2018-02-13T10:31:21.903Z,87.01
2018-02-13T10:32:28.651Z,87.07
2018-02-13T10:33:35.615Z,87.11
2018-02-13T10:34:42.815Z,87.17
2018-02-13T10:35:49.595Z,87.15
2018-02-13T10:36:56.267Z,87.20
2018-02-13T10:38:02.979Z,87.25
2018-02-13T10:39:09.759Z,87.31
2018-02-13T10:40:16.452Z,87.32
2018-02-13T10:41:23.148Z,87.38
2018-02-13T10:42:29.903Z,87.39
2018-02-13T10:43:36.559Z,87.43
2018-02-13T10:44:43.248Z,87.45
2018-02-13T10:45:49.922Z,87.52
2018-02-13T10:46:56.639Z,87.52
2018-02-13T10:48:03.354Z,87.56
2018-02-13T10:49:10.017Z,87.57
2018-02-13T10:50:16.703Z,87.59
2018-02-13T10:51:23.419Z,87.62
2018-02-13T10:52:30.184Z,87.65
2018-02-13T10:53:36.883Z,87.63
2018-02-13T10:54:43.621Z,87.62
2018-02-13T10:55:50.290Z,87.65
2018-02-13T10:56:57.000Z,87.65
2018-02-13T10:58:03.682Z,87.68
2018-02-13T10:59:10.361Z,87.71
2018-02-13T11:00:17.563Z,87.69
2018-02-13T11:01:24.526Z,87.67
2018-02-13T11:02:31.243Z,87.65
2018-02-13T11:03:38.413Z,87.67
2018-02-13T11:04:45.256Z,87.68
2018-02-13T11:05:51.989Z,87.66
2018-02-13T11:06:58.680Z,87.65
2018-02-13T11:08:05.382Z,87.60
2018-02-13T11:09:12.083Z,87.55
2018-02-13T11:10:18.799Z,87.48
2018-02-13T11:11:25.567Z,87.50
2018-02-13T11:12:32.734Z,87.50
2018-02-13T11:13:39.403Z,87.44
2018-02-13T11:14:46.575Z,87.39
2018-02-13T11:15:53.390Z,87.30
2018-02-13T11:17:00.175Z,87.28
2018-02-13T11:18:06.955Z,87.24
2018-02-13T11:19:13.719Z,87.15
2018-02-13T11:20:20.436Z,87.08
2018-02-13T11:21:27.183Z,87.00
2018-02-13T11:22:33.905Z,86.81
2018-02-13T11:23:40.652Z,86.67
2018-02-13T11:24:47.356Z,86.49
2018-02-13T11:25:54.051Z,86.36
2018-02-13T11:27:00.762Z,86.10
2018-02-13T11:28:07.484Z,85.74
2018-02-13T11:29:14.147Z,85.65
2018-02-13T11:30:20.814Z,85.46
2018-02-13T11:31:27.999Z,85.14
2018-02-13T11:32:34.760Z,84.98
2018-02-13T11:33:41.441Z,84.75
2018-02-13T11:34:48.623Z,84.63
2018-02-13T11:35:55.316Z,84.71
2018-02-13T11:37:02.067Z,84.63
2018-02-13T11:38:08.763Z,84.30
2018-02-13T11:39:15.496Z,84.29
2018-02-13T11:40:22.143Z,83.91
2018-02-13T11:41:28.892Z,83.89
2018-02-13T11:42:35.606Z,83.82
2018-02-13T11:43:42.288Z,83.70
2018-02-13T11:44:48.975Z,83.47
2018-02-13T11:45:55.651Z,83.25
2018-02-13T11:47:02.407Z,83.07
2018-02-13T11:48:09.083Z,82.76
2018-02-13T11:49:15.774Z,82.52
2018-02-13T11:50:22.526Z,82.49
2018-02-13T11:51:29.181Z,82.32
2018-02-13T11:52:36.368Z,82.13
2018-02-13T11:53:43.080Z,81.89
2018-02-13T11:54:49.779Z,81.67
2018-02-13T11:55:56.520Z,81.42
2018-02-13T11:57:03.349Z,81.50
2018-02-13T11:58:10.058Z,81.64
2018-02-13T11:59:16.786Z,81.39
2018-02-13T12:00:23.459Z,81.48
2018-02-13T12:01:30.138Z,81.11
2018-02-13T12:02:36.810Z,80.94
2018-02-13T12:03:43.635Z,80.58
2018-02-13T12:04:50.339Z,80.22
2018-02-13T12:05:57.014Z,80.08
2018-02-13T12:07:03.697Z,79.77
2018-02-13T12:08:10.529Z,79.51
2018-02-13T12:09:17.420Z,79.30
2018-02-13T12:10:24.125Z,79.09
2018-02-13T12:11:30.846Z,79.26
2018-02-13T12:12:37.544Z,79.37
2018-02-13T12:13:44.325Z,78.90
2018-02-13T12:14:51.151Z,78.42
2018-02-13T12:15:57.862Z,78.37
2018-02-13T12:17:04.561Z,78.23
2018-02-13T12:18:11.327Z,77.85
2018-02-13T12:19:18.180Z,77.75
2018-02-13T12:20:24.863Z,77.55
2018-02-13T12:21:31.564Z,77.44
2018-02-13T12:22:38.259Z,77.51
2018-02-13T12:23:44.971Z,77.31
2018-02-13T12:24:51.736Z,76.90
2018-02-13T12:25:58.443Z,76.64
2018-02-13T12:27:05.217Z,76.54
2018-02-13T12:28:11.978Z,76.33
2018-02-13T12:29:18.686Z,75.84
2018-02-13T12:30:25.531Z,75.47
2018-02-13T12:31:32.263Z,75.37
2018-02-13T12:32:39.067Z,75.17
2018-02-13T12:33:46.725Z,74.75
2018-02-13T12:34:53.256Z,74.57
2018-02-13T12:35:59.945Z,74.32
2018-02-13T12:37:06.683Z,74.05
2018-02-13T12:38:13.519Z,74.03
2018-02-13T12:39:20.338Z,73.84
2018-02-13T12:40:27.093Z,73.71
2018-02-13T12:41:33.815Z,73.48
2018-02-13T12:42:40.588Z,73.38
2018-02-13T12:43:47.279Z,73.31
2018-02-13T12:44:54.120Z,73.22
2018-02-13T12:46:00.863Z,73.00
2018-02-13T12:47:07.650Z,72.90
2018-02-13T12:48:14.355Z,72.62
2018-02-13T12:49:21.111Z,72.53
2018-02-13T12:50:27.839Z,72.36
2018-02-13T12:51:34.584Z,72.13
2018-02-13T12:52:41.323Z,71.95
2018-02-13T12:53:48.016Z,71.86
2018-02-13T12:54:54.782Z,71.52
2018-02-13T12:56:01.491Z,71.43
2018-02-13T12:57:08.230Z,71.22
2018-02-13T12:58:14.990Z,71.10
2018-02-13T12:59:21.685Z,70.86
2018-02-13T13:00:28.422Z,70.67
2018-02-13T13:01:35.176Z,70.44
2018-02-13T13:02:41.899Z,70.23
2018-02-13T13:03:48.674Z,70.13
2018-02-13T13:04:55.838Z,69.99
2018-02-13T13:06:02.692Z,69.71
2018-02-13T13:07:09.429Z,69.36
2018-02-13T13:08:16.240Z,69.03
2018-02-13T13:09:22.955Z,68.74
2018-02-13T13:10:29.835Z,68.52
2018-02-13T13:11:36.527Z,68.38
2018-02-13T13:12:43.340Z,68.33
2018-02-13T13:13:50.058Z,67.95
2018-02-13T13:14:56.751Z,67.55
2018-02-13T13:16:03.466Z,67.52
2018-02-13T13:17:10.199Z,67.58
2018-02-13T13:18:16.954Z,67.21
2018-02-13T13:19:23.679Z,67.08
2018-02-13T13:20:30.416Z,66.82
2018-02-13T13:21:37.110Z,66.62
2018-02-13T13:22:43.815Z,66.41
2018-02-13T13:23:50.504Z,66.28
2018-02-13T13:24:57.312Z,66.26
2018-02-13T13:26:04.007Z,66.20
2018-02-13T13:27:10.835Z,65.86
2018-02-13T13:28:17.646Z,65.62
2018-02-13T13:29:24.367Z,65.58
2018-02-13T13:30:31.080Z,65.48
2018-02-13T13:31:37.855Z,65.17
2018-02-13T13:32:44.704Z,65.19
2018-02-13T13:33:51.630Z,65.00
2018-02-13T13:34:58.318Z,64.84
2018-02-13T13:36:05.020Z,64.53
2018-02-13T13:37:11.740Z,64.12
2018-02-13T13:38:18.490Z,63.92
2018-02-13T13:39:25.198Z,63.94
2018-02-13T13:40:32.150Z,63.86
2018-02-13T13:41:38.870Z,63.81
2018-02-13T13:42:45.623Z,63.66
2018-02-13T13:43:52.357Z,63.52
2018-02-13T13:44:59.116Z,63.48
2018-02-13T13:46:06.022Z,62.98
2018-02-13T13:47:12.773Z,62.95
2018-02-13T13:48:19.498Z,62.62
2018-02-13T13:49:26.234Z,62.59
2018-02-13T13:50:32.962Z,62.55
2018-02-13T13:51:39.683Z,62.29
2018-02-13T13:52:46.372Z,62.34
2018-02-13T13:53:53.215Z,62.22
2018-02-13T13:55:00.028Z,61.88
2018-02-13T13:56:06.748Z,61.84
2018-02-13T13:57:13.484Z,61.86
2018-02-13T13:58:20.226Z,61.90
2018-02-13T13:59:26.954Z,61.83
2018-02-13T14:00:33.701Z,61.64
2018-02-13T14:01:40.467Z,61.59
2018-02-13T14:02:47.307Z,61.39
2018-02-13T14:03:54.299Z,61.46
2018-02-13T14:05:01.124Z,61.22
2018-02-13T14:06:07.903Z,60.79
2018-02-13T14:07:14.607Z,60.89
2018-02-13T14:08:21.476Z,60.56
2018-02-13T14:09:28.342Z,60.52
2018-02-13T14:10:35.360Z,60.63
2018-02-13T14:11:42.121Z,60.50
2018-02-13T14:12:48.880Z,60.52
2018-02-13T14:13:55.583Z,60.50
2018-02-13T14:15:02.320Z,60.12
2018-02-13T14:16:09.031Z,60.03
2018-02-13T14:17:16.374Z,60.06
2018-02-13T14:18:22.754Z,60.00
2018-02-13T14:19:29.593Z,59.95